createdAt,value
2022-11-06T00:00:30.135Z,98568.69
2022-11-06T00:03:09.055Z,98566.50
2022-11-06T00:06:17.180Z,98565.19
2022-11-06T00:08:53.515Z,98564.59
2022-11-06T00:11:24.892Z,98549.03
2022-11-06T00:13:56.989Z,98551.00
2022-11-06T00:16:26.171Z,98546.59
2022-11-06T00:21:46.872Z,98562.19
2022-11-06T00:24:17.741Z,98564.47
2022-11-06T00:26:56.287Z,98541.41
2022-11-06T00:29:25.378Z,98530.44
2022-11-06T00:31:59.352Z,98551.50
2022-11-06T00:34:30.404Z,98527.50
2022-11-06T00:37:08.778Z,98570.41
2022-11-06T00:39:39.418Z,98566.84
2022-11-06T00:42:10.573Z,98571.81
2022-11-06T00:44:43.687Z,98572.09
2022-11-06T00:47:15.073Z,98571.69
2022-11-06T00:49:51.986Z,98574.34
2022-11-06T00:52:23.256Z,98577.00
2022-11-06T00:54:53.798Z,98588.47
2022-11-06T00:57:30.453Z,98572.63
2022-11-06T01:02:50.973Z,98578.56
2022-11-06T01:05:24.869Z,98573.72
2022-11-06T01:08:02.200Z,98583.88
2022-11-06T01:10:33.545Z,98554.44
2022-11-06T01:13:15.123Z,98569.53
2022-11-06T01:15:43.954Z,98567.06
2022-11-06T01:18:23.193Z,98572.25
2022-11-06T01:20:59.747Z,98574.41
2022-11-06T01:23:46.071Z,98578.25
2022-11-06T01:26:24.522Z,98571.34
2022-11-06T01:29:04.969Z,98572.69
2022-11-06T01:31:36.857Z,98582.69
2022-11-06T01:34:08.689Z,98579.19
2022-11-06T01:36:39.986Z,98580.53
2022-11-06T01:39:17.735Z,98578.94
2022-11-06T01:45:10.698Z,98585.84
2022-11-06T01:47:44.230Z,98584.69
2022-11-06T01:50:25.221Z,98584.91
2022-11-06T01:53:02.320Z,98590.69
2022-11-06T01:55:41.402Z,98600.56
2022-11-06T01:58:12.338Z,98598.47
2022-11-06T02:00:49.154Z,98601.81
2022-11-06T02:03:18.074Z,98604.28
2022-11-06T02:05:52.041Z,98614.91
2022-11-06T02:08:25.174Z,98607.34
2022-11-06T02:11:04.275Z,98602.16
2022-11-06T02:13:57.490Z,98611.41
2022-11-06T02:16:49.819Z,98615.53
2022-11-06T02:20:01.527Z,98627.69
2022-11-06T02:26:16.178Z,98619.19
2022-11-06T02:29:16.400Z,98623.63
2022-11-06T02:31:50.192Z,98623.34
2022-11-06T02:34:25.323Z,98628.81
2022-11-06T02:37:04.792Z,98634.03
2022-11-06T02:39:48.525Z,98635.41
2022-11-06T02:42:27.914Z,98640.06
2022-11-06T02:45:03.367Z,98634.03
2022-11-06T02:47:35.862Z,98631.22
2022-11-06T02:50:20.060Z,98633.00
2022-11-06T02:53:03.614Z,98631.34
2022-11-06T02:55:48.809Z,98631.06
2022-11-06T02:58:57.018Z,98608.81
2022-11-06T03:01:54.875Z,98638.19
2022-11-06T03:04:50.631Z,98640.66
2022-11-06T03:07:33.515Z,98642.00
2022-11-06T03:10:12.681Z,98636.81
2022-11-06T03:12:51.664Z,98645.00
2022-11-06T03:15:50.307Z,98648.63
2022-11-06T03:18:45.306Z,98626.91
2022-11-06T03:21:34.032Z,98639.63
2022-11-06T03:24:35.202Z,98650.28
2022-11-06T03:27:13.344Z,98648.63
2022-11-06T03:29:56.280Z,98651.91
2022-11-06T03:32:58.992Z,98656.03
2022-11-06T03:35:50.153Z,98562.06
2022-11-06T03:38:45.677Z,98665.91
2022-11-06T03:41:56.519Z,98670.84
2022-11-06T03:44:34.286Z,98679.13
2022-11-06T03:47:25.932Z,98676.59
2022-11-06T03:50:25.191Z,98654.88
2022-11-06T03:53:38.465Z,98676.09
2022-11-06T03:59:35.368Z,98685.72
2022-11-06T04:02:06.713Z,98678.84
2022-11-06T04:04:57.096Z,98674.97
2022-11-06T04:07:48.463Z,98680.50
2022-11-06T04:10:38.150Z,98670.06
2022-11-06T04:13:26.455Z,98693.66
2022-11-06T04:16:03.729Z,98688.16
2022-11-06T04:18:32.953Z,98684.63
2022-11-06T04:21:30.778Z,98682.97
2022-11-06T04:27:51.267Z,98702.16
2022-11-06T04:30:23.005Z,98694.75
2022-11-06T04:33:35.790Z,98691.97
2022-11-06T04:36:33.640Z,98695.53
2022-11-06T04:39:31.677Z,98697.25
2022-11-06T04:42:35.768Z,98697.78
2022-11-06T04:45:14.439Z,98676.06
2022-11-06T04:50:40.253Z,98708.72
2022-11-06T04:53:17.395Z,98696.41
2022-11-06T04:56:12.444Z,98707.66
2022-11-06T04:58:49.004Z,98711.81
2022-11-06T05:01:19.774Z,98693.97
2022-11-06T05:03:52.755Z,98704.97
2022-11-06T05:06:29.991Z,98692.31
2022-11-06T05:09:10.779Z,98698.94
2022-11-06T05:11:41.302Z,98710.13
2022-11-06T05:14:11.786Z,98705.50
2022-11-06T05:19:26.761Z,98676.13
2022-11-06T05:22:19.762Z,98712.38
2022-11-06T05:24:49.266Z,98712.38
2022-11-06T05:27:20.061Z,98708.25
2022-11-06T05:29:55.183Z,98708.78
2022-11-06T05:32:25.580Z,98708.81
2022-11-06T05:34:59.162Z,98710.47
2022-11-06T05:37:31.061Z,98703.91
2022-11-06T05:40:06.963Z,98702.81
2022-11-06T05:45:24.344Z,98683.81
2022-11-06T05:47:56.320Z,98703.31
2022-11-06T05:50:34.073Z,98704.97
2022-11-06T05:53:07.045Z,98711.59
2022-11-06T05:55:35.450Z,98724.75
2022-11-06T05:58:05.625Z,98724.50
2022-11-06T06:00:36.199Z,98740.72
2022-11-06T06:03:08.052Z,98751.69
2022-11-06T06:05:42.694Z,98733.88
2022-11-06T06:08:11.819Z,98745.09
2022-11-06T06:10:43.365Z,98740.72
2022-11-06T06:13:15.981Z,98747.06
2022-11-06T06:15:52.306Z,98722.00
2022-11-06T06:18:35.014Z,98764.59
2022-11-06T06:21:14.762Z,98764.59
2022-11-06T06:23:43.389Z,98750.56
2022-11-06T06:26:29.241Z,98754.41
2022-11-06T06:29:00.171Z,98754.75
2022-11-06T06:31:31.355Z,98759.41
2022-11-06T06:34:08.128Z,98766.00
2022-11-06T06:36:37.906Z,98767.09
2022-11-06T06:39:17.185Z,98772.59
2022-11-06T06:41:54.871Z,98767.66
2022-11-06T06:44:26.653Z,98771.25
2022-11-06T06:46:56.932Z,98781.13
2022-11-06T06:49:25.722Z,98756.69
2022-11-06T06:51:56.060Z,98775.09
2022-11-06T06:54:33.674Z,98770.44
2022-11-06T06:57:11.660Z,98785.56
2022-11-06T06:59:44.030Z,98775.34
2022-11-06T07:05:05.924Z,98779.47
2022-11-06T07:07:40.708Z,98770.38
2022-11-06T07:10:09.969Z,98755.78
2022-11-06T07:12:41.190Z,98785.16
2022-11-06T07:15:17.987Z,98778.00
2022-11-06T07:17:48.975Z,98779.09
2022-11-06T07:20:29.679Z,98779.69
2022-11-06T07:23:07.097Z,98775.50
2022-11-06T07:25:41.026Z,98782.06
2022-11-06T07:28:09.760Z,98782.03
2022-11-06T07:30:43.379Z,98769.78
2022-11-06T07:33:18.558Z,98760.91
2022-11-06T07:35:47.514Z,98757.50
2022-11-06T07:38:21.484Z,98723.16
2022-11-06T07:40:49.738Z,98742.44
2022-11-06T07:43:25.022Z,98737.72
2022-11-06T07:46:00.920Z,98748.56
2022-11-06T07:48:39.385Z,98740.22
2022-11-06T07:51:19.505Z,98737.84
2022-11-06T07:53:47.626Z,98737.41
2022-11-06T07:56:15.295Z,98742.69
2022-11-06T07:58:49.854Z,98741.06
2022-11-06T08:01:24.368Z,98753.84
2022-11-06T08:03:56.791Z,98753.50
2022-11-06T08:06:26.868Z,98760.78
2022-11-06T08:08:59.075Z,98719.84
2022-11-06T08:11:37.559Z,98755.91
2022-11-06T08:14:10.229Z,98759.50
2022-11-06T08:16:38.564Z,98761.72
2022-11-06T08:19:20.383Z,98762.09
2022-11-06T08:21:51.418Z,98773.28
2022-11-06T08:24:24.026Z,98773.41
2022-11-06T08:26:54.406Z,98776.78
2022-11-06T08:32:14.289Z,98788.34
2022-11-06T08:34:53.230Z,98778.91
2022-11-06T08:37:21.878Z,98781.44
2022-11-06T08:42:45.663Z,98780.44
2022-11-06T08:45:26.385Z,98789.94
2022-11-06T08:48:03.109Z,98785.75
2022-11-06T08:50:41.480Z,98793.41
2022-11-06T08:53:15.878Z,98787.25
2022-11-06T08:55:44.766Z,98779.81
2022-11-06T08:58:22.047Z,98784.03
2022-11-06T09:00:53.208Z,98784.50
2022-11-06T09:03:26.638Z,98768.84
2022-11-06T09:05:55.201Z,98780.31
2022-11-06T09:08:28.586Z,98777.09
2022-11-06T09:10:59.690Z,98790.38
2022-11-06T09:13:31.151Z,98800.25
2022-11-06T09:16:04.588Z,98773.91
2022-11-06T09:21:16.958Z,98779.91
2022-11-06T09:23:47.945Z,98785.25
2022-11-06T09:26:21.781Z,98783.19
2022-11-06T09:28:52.219Z,98774.69
2022-11-06T09:31:25.129Z,98766.25
2022-11-06T09:33:56.661Z,98762.31
2022-11-06T09:36:27.503Z,98758.56
2022-11-06T09:38:58.565Z,98760.50
2022-11-06T09:42:01.821Z,98766.31
2022-11-06T09:48:04.769Z,98753.75
2022-11-06T09:50:45.214Z,98749.75
2022-11-06T09:53:25.777Z,98748.53
2022-11-06T09:55:56.684Z,98754.16
2022-11-06T09:58:39.376Z,98739.72
2022-11-06T10:01:34.025Z,98749.63
2022-11-06T10:04:13.502Z,98748.94
2022-11-06T10:06:43.946Z,98741.84
2022-11-06T10:09:15.296Z,98735.72
2022-11-06T10:12:23.341Z,98734.72
2022-11-06T10:15:20.139Z,98737.88
2022-11-06T10:18:17.340Z,98724.56
2022-11-06T10:21:01.362Z,98728.53
2022-11-06T10:23:54.101Z,98728.97
2022-11-06T10:26:49.942Z,98728.03
2022-11-06T10:29:53.067Z,98721.34
2022-11-06T10:32:42.835Z,98713.25
2022-11-06T10:35:37.689Z,98720.59
2022-11-06T10:38:22.700Z,98718.84
2022-11-06T10:40:54.120Z,98720.19
2022-11-06T10:43:39.223Z,98720.91
2022-11-06T10:47:00.804Z,98720.31
2022-11-06T10:49:47.950Z,98714.16
2022-11-06T10:52:56.986Z,98706.69
2022-11-06T10:56:10.676Z,98706.59
2022-11-06T10:58:40.839Z,98699.22
2022-11-06T11:01:28.055Z,98704.25
2022-11-06T11:04:02.456Z,98701.38
2022-11-06T11:06:32.479Z,98704.13
2022-11-06T11:09:13.684Z,98699.50
2022-11-06T11:11:53.103Z,98698.28
2022-11-06T11:14:38.500Z,98687.31
2022-11-06T11:17:19.746Z,98698.69
2022-11-06T11:19:47.451Z,98705.16
2022-11-06T11:22:32.995Z,98699.94
2022-11-06T11:25:10.395Z,98698.28
2022-11-06T11:27:48.135Z,98697.78
2022-11-06T11:30:29.569Z,98691.53
2022-11-06T11:33:26.334Z,98691.22
2022-11-06T11:35:56.531Z,98690.19
2022-11-06T11:38:39.106Z,98685.66
2022-11-06T11:41:31.511Z,98677.03
2022-11-06T11:44:24.538Z,98673.75
2022-11-06T11:46:56.574Z,98666.03
2022-11-06T11:49:31.332Z,98658.97
2022-11-06T11:55:19.675Z,98652.19
2022-11-06T11:57:58.809Z,98652.84
2022-11-06T12:00:34.349Z,98619.88
2022-11-06T12:03:13.575Z,98637.66
2022-11-06T12:05:43.129Z,98633.00
2022-11-06T12:08:26.390Z,98619.91
2022-11-06T12:11:23.040Z,98626.19
2022-11-06T12:14:38.658Z,98622.03
2022-11-06T12:17:25.693Z,98618.59
2022-11-06T12:20:00.224Z,98617.00
2022-11-06T12:22:44.530Z,98609.00
2022-11-06T12:25:48.286Z,98615.53
2022-11-06T12:28:24.266Z,98611.13
2022-11-06T12:31:07.520Z,98609.41
2022-11-06T12:34:05.550Z,98606.31
2022-11-06T12:36:52.884Z,98601.09
2022-11-06T12:39:31.292Z,98608.75
2022-11-06T12:42:11.580Z,98593.66
2022-11-06T12:44:48.109Z,98605.34
2022-11-06T12:47:53.886Z,98616.50
2022-11-06T12:51:03.269Z,98623.69
2022-11-06T12:54:23.372Z,98631.19
2022-11-06T12:57:15.585Z,98623.00
2022-11-06T13:00:31.528Z,98628.22
2022-11-06T13:03:45.143Z,98621.63
2022-11-06T13:07:09.605Z,98615.75
2022-11-06T13:10:13.530Z,98611.22
2022-11-06T13:13:00.363Z,98604.84
2022-11-06T13:15:36.518Z,98611.03
2022-11-06T13:18:12.649Z,98607.56
2022-11-06T13:20:54.913Z,98574.91
2022-11-06T13:23:44.749Z,98589.91
2022-11-06T13:26:41.794Z,98583.72
2022-11-06T13:29:16.389Z,98587.25
2022-11-06T13:35:05.969Z,98574.72
2022-11-06T13:37:49.118Z,98583.19
2022-11-06T13:40:44.485Z,98584.06
2022-11-06T13:43:44.809Z,98584.81
2022-11-06T13:46:42.246Z,98577.34
2022-11-06T13:49:47.487Z,98577.22
2022-11-06T13:52:38.189Z,98585.84
2022-11-06T13:55:27.757Z,98577.03
2022-11-06T13:58:27.537Z,98578.59
2022-11-06T14:01:09.238Z,98570.78
2022-11-06T14:04:11.697Z,98570.28
2022-11-06T14:06:44.488Z,98536.47
2022-11-06T14:09:23.610Z,98553.53
2022-11-06T14:11:59.816Z,98548.94
2022-11-06T14:14:38.060Z,98554.63
2022-11-06T14:17:30.219Z,98556.00
2022-11-06T14:20:38.581Z,98551.13
2022-11-06T14:23:44.119Z,98545.53
2022-11-06T14:26:44.874Z,98551.22
2022-11-06T14:29:29.374Z,98555.84
2022-11-06T14:32:14.228Z,98548.56
2022-11-06T14:34:56.690Z,98525.47
2022-11-06T14:37:49.406Z,98539.88
2022-11-06T14:40:35.730Z,98536.59
2022-11-06T14:43:25.517Z,98534.97
2022-11-06T14:46:22.150Z,98541.00
2022-11-06T14:49:09.767Z,98536.06
2022-11-06T14:51:39.079Z,98531.25
2022-11-06T14:54:24.766Z,98523.34
2022-11-06T14:57:06.569Z,98525.31
2022-11-06T14:59:43.736Z,98528.66
2022-11-06T15:02:25.031Z,98532.88
2022-11-06T15:05:02.489Z,98529.59
2022-11-06T15:08:06.822Z,98512.66
2022-11-06T15:10:48.799Z,98523.72
2022-11-06T15:13:30.129Z,98537.50
2022-11-06T15:16:12.589Z,98533.00
2022-11-06T15:18:48.524Z,98536.13
2022-11-06T15:21:27.908Z,98517.84
2022-11-06T15:24:04.883Z,98534.63
2022-11-06T15:26:45.003Z,98536.28
2022-11-06T15:29:29.905Z,98544.00
2022-11-06T15:32:08.027Z,98545.06
2022-11-06T15:35:16.970Z,98548.22
2022-11-06T15:38:01.256Z,98550.72
2022-11-06T15:40:43.913Z,98562.03
2022-11-06T15:43:36.923Z,98538.22
2022-11-06T15:46:24.661Z,98563.22
2022-11-06T15:52:20.056Z,98567.03
2022-11-06T15:54:50.731Z,98554.31
2022-11-06T15:57:31.628Z,98562.00
2022-11-06T16:00:24.813Z,98563.13
2022-11-06T16:02:58.647Z,98562.81
2022-11-06T16:05:41.438Z,98575.22
2022-11-06T16:08:31.465Z,98571.25
2022-11-06T16:11:13.116Z,98574.88
2022-11-06T16:13:45.488Z,98569.72
2022-11-06T16:16:37.592Z,98570.00
2022-11-06T16:19:24.043Z,98574.53
2022-11-06T16:22:04.677Z,98554.00
2022-11-06T16:24:48.017Z,98580.66
2022-11-06T16:27:16.794Z,98581.50
2022-11-06T16:29:58.989Z,98582.47
2022-11-06T16:32:39.741Z,98580.19
2022-11-06T16:36:11.964Z,98576.66
2022-11-06T16:38:48.136Z,98573.91
2022-11-06T16:41:39.584Z,98545.00
2022-11-06T16:44:26.071Z,98580.06
2022-11-06T16:47:19.511Z,98596.19
2022-11-06T16:49:58.589Z,98597.19
2022-11-06T16:52:41.751Z,98610.56
2022-11-06T16:55:17.254Z,98611.22
2022-11-06T16:58:02.852Z,98611.16
2022-11-06T17:00:43.486Z,98619.72
2022-11-06T17:03:27.830Z,98618.50
2022-11-06T17:06:04.673Z,98615.56
2022-11-06T17:08:43.679Z,98622.47
2022-11-06T17:11:26.336Z,98621.56
2022-11-06T17:14:00.264Z,98620.13
2022-11-06T17:16:30.880Z,98605.44
2022-11-06T17:19:04.727Z,98629.84
2022-11-06T17:21:36.227Z,98630.28
2022-11-06T17:24:35.465Z,98632.09
2022-11-06T17:27:08.924Z,98633.63
2022-11-06T17:29:42.868Z,98635.53
2022-11-06T17:32:22.369Z,98629.63
2022-11-06T17:34:51.074Z,98634.56
2022-11-06T17:40:12.816Z,98632.91
2022-11-06T17:42:50.400Z,98631.56
2022-11-06T17:45:19.332Z,98624.94
2022-11-06T17:50:58.899Z,98642.44
2022-11-06T17:53:29.723Z,98642.19
2022-11-06T17:55:59.954Z,98643.97
2022-11-06T17:58:27.887Z,98645.63
2022-11-06T18:01:05.235Z,98642.91
2022-11-06T18:03:41.644Z,98650.31
2022-11-06T18:06:12.416Z,98632.00
2022-11-06T18:08:42.561Z,98644.19
2022-11-06T18:14:00.741Z,98647.88
2022-11-06T18:16:38.491Z,98653.63
2022-11-06T18:19:19.965Z,98656.69
2022-11-06T18:21:51.289Z,98638.56
2022-11-06T18:24:22.722Z,98647.84
2022-11-06T18:26:52.078Z,98641.22
2022-11-06T18:29:25.867Z,98647.28
2022-11-06T18:31:58.442Z,98643.53
2022-11-06T18:34:29.713Z,98647.53
2022-11-06T18:37:08.756Z,98640.59
2022-11-06T18:39:42.228Z,98642.88
2022-11-06T18:42:14.011Z,98645.22
2022-11-06T18:44:48.031Z,98649.03
2022-11-06T18:47:23.507Z,98654.41
2022-11-06T18:49:52.563Z,98654.13
2022-11-06T18:52:44.380Z,98652.72
2022-11-06T18:55:15.144Z,98652.72
2022-11-06T18:57:47.319Z,98652.38
2022-11-06T19:00:27.785Z,98647.38
2022-11-06T19:02:55.693Z,98645.88
2022-11-06T19:05:28.322Z,98652.19
2022-11-06T19:08:00.529Z,98649.44
2022-11-06T19:10:37.166Z,98654.66
2022-11-06T19:13:20.092Z,98650.66
2022-11-06T19:15:49.254Z,98655.88
2022-11-06T19:18:22.796Z,98655.06
2022-11-06T19:20:51.199Z,98665.69
2022-11-06T19:23:21.337Z,98642.00
2022-11-06T19:26:04.595Z,98662.88
2022-11-06T19:28:49.172Z,98661.88
2022-11-06T19:31:28.508Z,98662.69
2022-11-06T19:34:00.137Z,98661.81
2022-11-06T19:36:36.212Z,98664.56
2022-11-06T19:39:14.321Z,98657.78
2022-11-06T19:41:43.461Z,98664.88
2022-11-06T19:44:16.046Z,98673.72
2022-11-06T19:46:52.128Z,98676.47
2022-11-06T19:49:30.227Z,98676.72
2022-11-06T19:52:40.532Z,98672.38
2022-11-06T19:55:26.673Z,98664.69
2022-11-06T19:57:53.245Z,98654.78
2022-11-06T20:00:24.981Z,98647.97
2022-11-06T20:02:55.043Z,98667.09
2022-11-06T20:05:22.938Z,98678.41
2022-11-06T20:07:56.384Z,98679.28
2022-11-06T20:10:29.952Z,98666.13
2022-11-06T20:12:59.461Z,98661.22
2022-11-06T20:15:31.396Z,98656.53
2022-11-06T20:18:04.998Z,98657.97
2022-11-06T20:20:39.055Z,98646.72
2022-11-06T20:23:13.186Z,98649.97
2022-11-06T20:25:51.795Z,98667.69
2022-11-06T20:28:38.277Z,98665.03
2022-11-06T20:31:22.660Z,98662.78
2022-11-06T20:33:53.578Z,98649.50
2022-11-06T20:36:28.055Z,98650.22
2022-11-06T20:39:03.920Z,98647.19
2022-11-06T20:41:42.757Z,98654.69
2022-11-06T20:44:11.924Z,98651.69
2022-11-06T20:46:47.622Z,98650.81
2022-11-06T20:49:28.857Z,98660.53
2022-11-06T20:52:13.667Z,98660.25
2022-11-06T20:54:52.942Z,98656.63
2022-11-06T20:57:22.974Z,98674.63
2022-11-06T21:00:01.176Z,98665.13
2022-11-06T21:02:37.172Z,98652.56
2022-11-06T21:05:08.044Z,98658.75
2022-11-06T21:07:43.080Z,98654.91
2022-11-06T21:10:19.335Z,98656.31
2022-11-06T21:15:37.782Z,98660.69
2022-11-06T21:18:06.055Z,98656.53
2022-11-06T21:20:42.527Z,98651.94
2022-11-06T21:23:11.373Z,98666.06
2022-11-06T21:25:45.035Z,98670.63
2022-11-06T21:28:17.430Z,98663.69
2022-11-06T21:30:48.237Z,98664.81
2022-11-06T21:33:16.727Z,98675.84
2022-11-06T21:35:45.860Z,98674.28
2022-11-06T21:38:25.237Z,98656.56
2022-11-06T21:40:53.929Z,98670.22
2022-11-06T21:43:22.562Z,98669.56
2022-11-06T21:46:00.622Z,98667.03
2022-11-06T21:48:45.946Z,98667.50
2022-11-06T21:51:29.784Z,98665.84
2022-11-06T21:54:19.824Z,98660.41
2022-11-06T21:56:56.601Z,98674.31
2022-11-06T21:59:30.345Z,98667.16
2022-11-06T22:04:52.839Z,98672.19
2022-11-06T22:07:26.487Z,98671.97
2022-11-06T22:09:56.834Z,98671.44
2022-11-06T22:15:10.961Z,98670.59
2022-11-06T22:17:49.429Z,98669.00
2022-11-06T22:20:19.750Z,98669.06
2022-11-06T22:22:52.910Z,98672.53
2022-11-06T22:25:21.947Z,98665.09
2022-11-06T22:27:58.508Z,98672.50
2022-11-06T22:30:28.965Z,98676.06
2022-11-06T22:33:00.227Z,98670.19
2022-11-06T22:35:29.872Z,98670.19
2022-11-06T22:38:01.081Z,98673.47
2022-11-06T22:40:33.920Z,98669.66
2022-11-06T22:43:05.844Z,98678.53
2022-11-06T22:45:36.496Z,98680.53
2022-11-06T22:48:25.205Z,98684.72
2022-11-06T22:53:39.789Z,98678.09
2022-11-06T22:59:09.043Z,98678.19
2022-11-06T23:01:42.197Z,98682.75
2022-11-06T23:04:15.912Z,98678.81
2022-11-06T23:06:56.061Z,98673.38
2022-11-06T23:09:27.684Z,98683.16
2022-11-06T23:11:57.905Z,98684.53
2022-11-06T23:14:31.342Z,98689.66
2022-11-06T23:17:08.707Z,98690.69
2022-11-06T23:19:39.125Z,98676.53
2022-11-06T23:22:26.903Z,98675.47
2022-11-06T23:25:00.461Z,98669.38
2022-11-06T23:27:32.087Z,98669.09
2022-11-06T23:30:04.067Z,98666.22
2022-11-06T23:32:41.783Z,98662.56
2022-11-06T23:35:18.281Z,98666.44
2022-11-06T23:37:49.554Z,98647.47
2022-11-06T23:40:19.822Z,98663.56
2022-11-06T23:42:57.756Z,98660.41
2022-11-06T23:45:47.341Z,98660.94
2022-11-06T23:48:22.020Z,98665.03
2022-11-06T23:51:03.341Z,98664.09
2022-11-06T23:53:33.355Z,98667.72
2022-11-06T23:56:11.619Z,98662.25
2022-11-06T23:58:47.874Z,98687.75
